Meteo Giornale » Osservazioni meteo Stati Uniti (USA) » Bicycle Lake Ca
ore: 14:31 - Osservazioni Meteo Bicycle Lake Ca
Lat. 35° 17' N Lon. 116° 37' W Alt. 716 metri s.l.m.
35 °C
Sereno
Temp. 24 Ore
23 °C
37 °C
Sud/Sud-Ovest
24 Km/h
Dew point 9 °C
Umidità 20 %
Visibilità 10 Km
Il sole sorge alle ore 06:18
Il sole tramonta alle ore 19:14
| Data e Ora | Cielo e Fenomeni | T °C | DP °C | Um. % | Pres. hPa | Vis. km | Vento km/h | |
|---|---|---|---|---|---|---|---|---|
| Oggi h: 14:31 | Sereno | 35 | 9 | 20 | 1011 | 10 | S/SO 24 | |
| Oggi h: 13:55 | Sereno | 34 | 8 | 20 | 1012 | 10 | S/SE 13 | |
| Oggi h: 13:43 | Sereno | 34 | 8 | 20 | 1012 | 10 | S/SE 29.6 | |
| Oggi h: 12:55 | Poco Nuvoloso | 34 | 9 | 21 | 1012 | 10 | S/SE 18.5 | |
| Oggi h: 12:45 | Sereno | 34 | 8 | 20 | 1012 | 10 | S/SE 20.3 | |
| Oggi h: 12:38 | Sereno | 34 | 9 | 21 | 1012 | 10 | S/SO 20.3 | |
| Oggi h: 11:55 | Sereno | 33 | 8 | 21 | 1013 | 10 | S 18.5 | |
| Oggi h: 10:55 | Sereno | 32 | 4 | 17 | 1014 | 10 | S 14.8 | |
| Oggi h: 09:55 | Sereno | 30 | 3 | 17 | 1014 | 10 | N 0 | |
| Oggi h: 08:55 | Sereno | 29 | 1 | 16 | 1013 | 14 | SO 11.1 | |
| Oggi h: 07:55 | Sereno | 26 | 1 | 19 | 1013 | 10 | N 0 | |
| Oggi h: 06:55 | Sereno | 23 | 2 | 25 | 1012 | 14 | N/NE 9.3 | |
| Oggi h: 05:55 | Sereno | 23 | 2 | 25 | 1012 | 10 | N 0 | |
| Oggi h: 04:55 | Poco Nuvoloso | 25 | 3 | 23 | 1012 | 10 | O/SO 16.7 | |
| Oggi h: 03:55 | Poco Nuvoloso | 26 | 2 | 20 | 1012 | 10 | O/SO 9.3 | |
| Oggi h: 02:55 | Sereno | 26 | 0 | 18 | 1012 | 10 | N 0 | |
| Oggi h: 01:55 | Sereno | 27 | 2 | 19 | 1011 | 10 | O 13 | |
| Ieri h: 23:55 | Sereno | 29 | 6 | 23 | 1012 | 10 | N 5.5 | |
| Ieri h: 22:55 | Sereno | 29 | 9 | 28 | 1012 | 10 | SE 11.1 | |
| Ieri h: 21:55 | Sereno | 29 | 9 | 28 | 1011 | 10 | S/SO 7.4 | |
| Ieri h: 20:55 | Sereno | 30 | 9 | 27 | 1011 | 14 | O/SO 13 | |
| Ieri h: 19:55 | Sereno | 32 | 6 | 19 | 1010 | 10 | O/SO 25.9 | |
| Ieri h: 18:55 | Sereno | 34 | 7 | 18 | 1009 | 14 | O/SO 33.3 | |
| Ieri h: 17:55 | Sereno | 37 | 7 | 15 | 1009 | 10 | S/SO 16.7 | |
| Ieri h: 17:33 | Sereno | 37 | 6 | 14 | 1009 | 10 | S/SO 22.2 | |
| Ieri h: 16:55 | Sereno | 37 | 6 | 14 | 1009 | 10 | S 7.4 | |
| Ieri h: 16:24 | Sereno | 37 | 7 | 15 | 1010 | 10 | S/SO 18.5 | |
| Ieri h: 15:55 | Sereno | 36 | 6 | 15 | 1010 | 10 | SO 11.1 | |
| Ieri h: 14:55 | Sereno | 36 | 7 | 16 | 1011 | 10 | S 13 | |



